sensor_id;sensor_type;location;lat;lon;timestamp;pressure;altitude;pressure_sealevel;temperature;humidity
36598;BME280;22607;49.550;11.940;2023-02-17T00:01:13;97635.13;;;1.94;100.00
36598;BME280;22607;49.550;11.940;2023-02-17T00:03:40;97641.09;;;1.81;100.00
36598;BME280;22607;49.550;11.940;2023-02-17T00:06:08;97642.03;;;1.80;100.00
36598;BME280;22607;49.550;11.940;2023-02-17T00:08:36;97639.66;;;1.63;100.00
36598;BME280;22607;49.550;11.940;2023-02-17T00:11:03;97636.22;;;1.62;100.00
36598;BME280;22607;49.550;11.940;2023-02-17T00:13:29;97635.63;;;1.72;100.00
36598;BME280;22607;49.550;11.940;2023-02-17T00:15:56;97635.84;;;1.54;100.00
36598;BME280;22607;49.550;11.940;2023-02-17T00:18:25;97633.97;;;1.70;100.00
36598;BME280;22607;49.550;11.940;2023-02-17T00:20:52;97630.22;;;1.62;100.00
36598;BME280;22607;49.550;11.940;2023-02-17T00:23:18;97628.53;;;1.61;100.00
36598;BME280;22607;49.550;11.940;2023-02-17T00:25:45;97620.31;;;1.68;100.00
36598;BME280;22607;49.550;11.940;2023-02-17T00:28:11;97623.28;;;1.62;100.00
36598;BME280;22607;49.550;11.940;2023-02-17T00:30:45;97632.38;;;1.55;100.00
36598;BME280;22607;49.550;11.940;2023-02-17T00:33:12;97615.09;;;1.41;100.00
36598;BME280;22607;49.550;11.940;2023-02-17T00:35:39;97629.22;;;1.35;100.00
36598;BME280;22607;49.550;11.940;2023-02-17T00:38:10;97623.25;;;1.35;100.00
36598;BME280;22607;49.550;11.940;2023-02-17T00:40:36;97629.59;;;1.43;100.00
36598;BME280;22607;49.550;11.940;2023-02-17T00:43:04;97625.91;;;1.33;100.00
36598;BME280;22607;49.550;11.940;2023-02-17T00:45:31;97626.56;;;1.37;100.00
36598;BME280;22607;49.550;11.940;2023-02-17T00:47:57;97610.13;;;1.38;100.00
36598;BME280;22607;49.550;11.940;2023-02-17T00:50:24;97618.16;;;1.33;100.00
36598;BME280;22607;49.550;11.940;2023-02-17T00:52:50;97620.47;;;1.23;100.00
36598;BME280;22607;49.550;11.940;2023-02-17T00:55:17;97626.66;;;1.21;100.00
36598;BME280;22607;49.550;11.940;2023-02-17T00:57:43;97629.78;;;1.26;100.00
36598;BME280;22607;49.550;11.940;2023-02-17T01:00:10;97616.31;;;1.21;100.00
36598;BME280;22607;49.550;11.940;2023-02-17T01:02:37;97624.38;;;1.16;100.00
36598;BME280;22607;49.550;11.940;2023-02-17T01:05:05;97623.44;;;1.02;100.00
36598;BME280;22607;49.550;11.940;2023-02-17T01:07:32;97621.41;;;1.08;100.00
36598;BME280;22607;49.550;11.940;2023-02-17T01:10:03;97611.69;;;1.11;100.00
36598;BME280;22607;49.550;11.940;2023-02-17T01:12:29;97616.53;;;1.03;100.00
36598;BME280;22607;49.550;11.940;2023-02-17T01:14:59;97611.44;;;1.01;100.00
36598;BME280;22607;49.550;11.940;2023-02-17T01:17:27;97600.88;;;1.04;100.00
36598;BME280;22607;49.550;11.940;2023-02-17T01:19:56;97614.66;;;1.05;100.00
36598;BME280;22607;49.550;11.940;2023-02-17T01:22:23;97603.59;;;1.03;100.00
36598;BME280;22607;49.550;11.940;2023-02-17T01:24:49;97605.25;;;1.04;100.00
36598;BME280;22607;49.550;11.940;2023-02-17T01:27:17;97610.41;;;1.04;100.00
36598;BME280;22607;49.550;11.940;2023-02-17T01:29:44;97614.94;;;1.00;100.00
36598;BME280;22607;49.550;11.940;2023-02-17T01:32:11;97601.56;;;1.08;100.00
36598;BME280;22607;49.550;11.940;2023-02-17T01:34:40;97606.34;;;1.14;100.00
36598;BME280;22607;49.550;11.940;2023-02-17T01:37:06;97605.88;;;1.08;100.00
36598;BME280;22607;49.550;11.940;2023-02-17T01:39:34;97597.94;;;0.96;100.00
36598;BME280;22607;49.550;11.940;2023-02-17T01:42:00;97602.09;;;1.13;100.00
36598;BME280;22607;49.550;11.940;2023-02-17T01:44:30;97594.06;;;1.03;100.00
36598;BME280;22607;49.550;11.940;2023-02-17T01:46:57;97574.56;;;0.98;100.00
36598;BME280;22607;49.550;11.940;2023-02-17T01:49:36;97581.66;;;1.09;100.00
36598;BME280;22607;49.550;11.940;2023-02-17T01:54:41;97570.03;;;1.16;100.00
36598;BME280;22607;49.550;11.940;2023-02-17T01:57:10;97572.53;;;1.03;100.00
36598;BME280;22607;49.550;11.940;2023-02-17T01:59:37;97572.78;;;1.13;100.00
36598;BME280;22607;49.550;11.940;2023-02-17T02:02:06;97560.22;;;1.21;100.00
36598;BME280;22607;49.550;11.940;2023-02-17T02:04:35;97567.25;;;1.04;100.00
36598;BME280;22607;49.550;11.940;2023-02-17T02:07:05;97553.38;;;1.20;100.00
36598;BME280;22607;49.550;11.940;2023-02-17T02:09:37;97547.56;;;1.16;100.00
36598;BME280;22607;49.550;11.940;2023-02-17T02:14:49;97546.16;;;1.25;100.00
36598;BME280;22607;49.550;11.940;2023-02-17T02:17:36;97543.56;;;1.25;100.00
36598;BME280;22607;49.550;11.940;2023-02-17T02:29:27;97522.81;;;1.40;100.00
36598;BME280;22607;49.550;11.940;2023-02-17T02:34:05;97531.34;;;1.27;100.00
36598;BME280;22607;49.550;11.940;2023-02-17T02:36:55;97529.59;;;1.28;100.00
36598;BME280;22607;49.550;11.940;2023-02-17T02:39:28;97522.28;;;1.35;100.00
36598;BME280;22607;49.550;11.940;2023-02-17T02:41:59;97524.97;;;1.33;100.00
36598;BME280;22607;49.550;11.940;2023-02-17T02:44:27;97517.94;;;1.35;100.00
36598;BME280;22607;49.550;11.940;2023-02-17T02:46:58;97525.09;;;1.44;100.00
36598;BME280;22607;49.550;11.940;2023-02-17T02:49:26;97522.63;;;1.43;100.00
36598;BME280;22607;49.550;11.940;2023-02-17T02:52:15;97523.94;;;1.36;100.00
36598;BME280;22607;49.550;11.940;2023-02-17T03:08:19;97511.88;;;1.49;100.00
36598;BME280;22607;49.550;11.940;2023-02-17T03:10:51;97513.00;;;1.45;100.00
36598;BME280;22607;49.550;11.940;2023-02-17T03:13:19;97511.78;;;1.51;100.00
36598;BME280;22607;49.550;11.940;2023-02-17T03:15:47;97509.28;;;1.49;100.00
36598;BME280;22607;49.550;11.940;2023-02-17T03:18:16;97504.63;;;1.41;100.00
36598;BME280;22607;49.550;11.940;2023-02-17T03:20:50;97500.06;;;1.45;100.00
36598;BME280;22607;49.550;11.940;2023-02-17T03:23:17;97492.09;;;1.48;100.00
36598;BME280;22607;49.550;11.940;2023-02-17T03:25:43;97500.75;;;1.62;100.00
36598;BME280;22607;49.550;11.940;2023-02-17T03:28:10;97491.34;;;1.46;100.00
36598;BME280;22607;49.550;11.940;2023-02-17T03:30:39;97483.75;;;1.57;100.00
36598;BME280;22607;49.550;11.940;2023-02-17T03:33:07;97486.25;;;1.59;100.00
36598;BME280;22607;49.550;11.940;2023-02-17T03:35:33;97485.69;;;1.54;100.00
36598;BME280;22607;49.550;11.940;2023-02-17T03:38:00;97491.44;;;1.44;100.00
36598;BME280;22607;49.550;11.940;2023-02-17T03:40:27;97496.25;;;1.51;100.00
36598;BME280;22607;49.550;11.940;2023-02-17T03:42:55;97498.88;;;1.64;100.00
36598;BME280;22607;49.550;11.940;2023-02-17T03:45:22;97509.97;;;1.66;100.00
36598;BME280;22607;49.550;11.940;2023-02-17T03:47:56;97503.97;;;1.78;100.00
36598;BME280;22607;49.550;11.940;2023-02-17T03:50:27;97494.97;;;1.71;100.00
36598;BME280;22607;49.550;11.940;2023-02-17T03:52:53;97495.16;;;1.68;100.00
36598;BME280;22607;49.550;11.940;2023-02-17T03:55:20;97494.13;;;1.70;100.00
36598;BME280;22607;49.550;11.940;2023-02-17T03:57:46;97492.25;;;1.73;100.00
36598;BME280;22607;49.550;11.940;2023-02-17T04:00:13;97496.03;;;1.81;100.00
36598;BME280;22607;49.550;11.940;2023-02-17T04:02:41;97490.31;;;1.76;100.00
36598;BME280;22607;49.550;11.940;2023-02-17T04:05:10;97501.00;;;1.85;100.00
36598;BME280;22607;49.550;11.940;2023-02-17T04:07:37;97494.47;;;1.92;100.00
36598;BME280;22607;49.550;11.940;2023-02-17T04:10:04;97501.09;;;1.83;100.00
36598;BME280;22607;49.550;11.940;2023-02-17T04:12:34;97491.56;;;1.83;100.00
36598;BME280;22607;49.550;11.940;2023-02-17T04:15:00;97480.03;;;1.62;100.00
36598;BME280;22607;49.550;11.940;2023-02-17T04:17:27;97490.25;;;1.63;100.00
36598;BME280;22607;49.550;11.940;2023-02-17T04:19:54;97483.69;;;1.72;100.00
36598;BME280;22607;49.550;11.940;2023-02-17T04:22:21;97487.22;;;1.84;100.00
36598;BME280;22607;49.550;11.940;2023-02-17T04:24:48;97480.28;;;1.85;100.00
36598;BME280;22607;49.550;11.940;2023-02-17T04:27:14;97473.44;;;1.83;100.00
36598;BME280;22607;49.550;11.940;2023-02-17T04:29:41;97484.00;;;1.80;100.00
36598;BME280;22607;49.550;11.940;2023-02-17T04:32:07;97481.09;;;1.72;100.00
36598;BME280;22607;49.550;11.940;2023-02-17T04:34:35;97481.19;;;1.70;100.00
36598;BME280;22607;49.550;11.940;2023-02-17T04:37:02;97475.31;;;1.81;100.00
36598;BME280;22607;49.550;11.940;2023-02-17T04:39:28;97490.03;;;1.94;100.00
36598;BME280;22607;49.550;11.940;2023-02-17T04:42:01;97478.41;;;2.00;100.00
36598;BME280;22607;49.550;11.940;2023-02-17T04:44:27;97483.59;;;2.00;100.00
36598;BME280;22607;49.550;11.940;2023-02-17T04:46:54;97476.97;;;1.95;100.00
36598;BME280;22607;49.550;11.940;2023-02-17T04:49:21;97471.91;;;1.94;100.00
36598;BME280;22607;49.550;11.940;2023-02-17T04:51:48;97476.16;;;1.95;100.00
36598;BME280;22607;49.550;11.940;2023-02-17T04:54:14;97466.41;;;2.12;100.00
36598;BME280;22607;49.550;11.940;2023-02-17T04:56:41;97468.06;;;2.00;100.00
36598;BME280;22607;49.550;11.940;2023-02-17T04:59:07;97466.41;;;1.99;100.00
36598;BME280;22607;49.550;11.940;2023-02-17T05:01:34;97465.28;;;2.03;100.00
36598;BME280;22607;49.550;11.940;2023-02-17T05:04:07;97473.66;;;2.06;100.00
36598;BME280;22607;49.550;11.940;2023-02-17T05:06:33;97459.97;;;1.91;100.00
36598;BME280;22607;49.550;11.940;2023-02-17T05:09:00;97466.81;;;1.92;100.00
36598;BME280;22607;49.550;11.940;2023-02-17T05:11:27;97467.13;;;2.01;100.00
36598;BME280;22607;49.550;11.940;2023-02-17T05:13:53;97462.16;;;2.10;100.00
36598;BME280;22607;49.550;11.940;2023-02-17T05:16:22;97457.72;;;2.13;100.00
36598;BME280;22607;49.550;11.940;2023-02-17T05:18:48;97466.72;;;2.20;100.00
36598;BME280;22607;49.550;11.940;2023-02-17T05:21:15;97459.47;;;2.25;100.00
36598;BME280;22607;49.550;11.940;2023-02-17T05:23:47;97468.38;;;2.21;100.00
36598;BME280;22607;49.550;11.940;2023-02-17T05:26:14;97462.91;;;2.13;100.00
36598;BME280;22607;49.550;11.940;2023-02-17T05:28:42;97454.81;;;2.17;100.00
36598;BME280;22607;49.550;11.940;2023-02-17T05:31:08;97450.66;;;2.15;100.00
36598;BME280;22607;49.550;11.940;2023-02-17T05:33:36;97452.28;;;2.29;100.00
36598;BME280;22607;49.550;11.940;2023-02-17T05:36:04;97453.88;;;2.31;100.00
36598;BME280;22607;49.550;11.940;2023-02-17T05:38:32;97450.00;;;2.37;100.00
36598;BME280;22607;49.550;11.940;2023-02-17T05:40:59;97449.47;;;2.45;100.00
36598;BME280;22607;49.550;11.940;2023-02-17T05:43:26;97446.88;;;2.45;100.00
36598;BME280;22607;49.550;11.940;2023-02-17T05:45:53;97434.06;;;2.30;100.00
36598;BME280;22607;49.550;11.940;2023-02-17T05:48:19;97435.72;;;2.44;100.00
36598;BME280;22607;49.550;11.940;2023-02-17T05:50:46;97433.41;;;2.40;100.00
36598;BME280;22607;49.550;11.940;2023-02-17T05:53:12;97431.47;;;2.43;100.00
36598;BME280;22607;49.550;11.940;2023-02-17T05:55:39;97439.00;;;2.46;100.00
36598;BME280;22607;49.550;11.940;2023-02-17T05:58:08;97435.63;;;2.46;100.00
36598;BME280;22607;49.550;11.940;2023-02-17T06:00:34;97429.28;;;2.50;100.00
36598;BME280;22607;49.550;11.940;2023-02-17T06:03:01;97426.44;;;2.53;100.00
36598;BME280;22607;49.550;11.940;2023-02-17T06:05:27;97428.00;;;2.56;100.00
36598;BME280;22607;49.550;11.940;2023-02-17T06:07:54;97422.50;;;2.60;100.00
36598;BME280;22607;49.550;11.940;2023-02-17T06:10:20;97425.81;;;2.62;100.00
36598;BME280;22607;49.550;11.940;2023-02-17T06:12:48;97437.63;;;2.67;100.00
36598;BME280;22607;49.550;11.940;2023-02-17T06:15:14;97438.56;;;2.66;100.00
36598;BME280;22607;49.550;11.940;2023-02-17T06:17:41;97433.19;;;2.69;100.00
36598;BME280;22607;49.550;11.940;2023-02-17T06:20:08;97426.09;;;2.71;100.00
36598;BME280;22607;49.550;11.940;2023-02-17T06:22:35;97441.16;;;2.66;100.00
36598;BME280;22607;49.550;11.940;2023-02-17T06:25:01;97434.59;;;2.73;100.00
36598;BME280;22607;49.550;11.940;2023-02-17T06:27:28;97431.91;;;2.74;100.00
36598;BME280;22607;49.550;11.940;2023-02-17T06:29:55;97431.50;;;2.81;100.00
36598;BME280;22607;49.550;11.940;2023-02-17T06:32:21;97427.75;;;2.72;100.00
36598;BME280;22607;49.550;11.940;2023-02-17T06:34:48;97429.41;;;2.73;100.00
36598;BME280;22607;49.550;11.940;2023-02-17T06:37:14;97423.88;;;2.91;100.00
36598;BME280;22607;49.550;11.940;2023-02-17T06:39:41;97426.25;;;2.94;100.00
36598;BME280;22607;49.550;11.940;2023-02-17T06:42:09;97419.91;;;2.98;100.00
36598;BME280;22607;49.550;11.940;2023-02-17T06:44:36;97421.09;;;3.05;100.00
36598;BME280;22607;49.550;11.940;2023-02-17T06:47:03;97417.59;;;3.06;100.00
36598;BME280;22607;49.550;11.940;2023-02-17T06:49:31;97423.59;;;3.31;100.00
36598;BME280;22607;49.550;11.940;2023-02-17T06:51:57;97425.75;;;3.37;100.00
36598;BME280;22607;49.550;11.940;2023-02-17T06:54:32;97412.84;;;3.36;100.00
36598;BME280;22607;49.550;11.940;2023-02-17T06:56:58;97422.25;;;3.50;100.00
36598;BME280;22607;49.550;11.940;2023-02-17T06:59:25;97425.50;;;3.65;100.00
36598;BME280;22607;49.550;11.940;2023-02-17T07:01:52;97427.25;;;3.64;100.00
36598;BME280;22607;49.550;11.940;2023-02-17T07:04:18;97435.31;;;3.73;100.00
36598;BME280;22607;49.550;11.940;2023-02-17T07:06:45;97427.78;;;3.92;100.00
36598;BME280;22607;49.550;11.940;2023-02-17T07:09:12;97431.72;;;4.10;100.00
36598;BME280;22607;49.550;11.940;2023-02-17T07:11:39;97434.09;;;4.36;100.00
36598;BME280;22607;49.550;11.940;2023-02-17T07:14:07;97430.97;;;4.76;100.00
36598;BME280;22607;49.550;11.940;2023-02-17T07:16:33;97434.63;;;4.96;100.00
36598;BME280;22607;49.550;11.940;2023-02-17T07:19:00;97422.28;;;5.10;100.00
36598;BME280;22607;49.550;11.940;2023-02-17T07:21:26;97423.84;;;5.34;100.00
36598;BME280;22607;49.550;11.940;2023-02-17T07:23:54;97429.50;;;5.39;100.00
36598;BME280;22607;49.550;11.940;2023-02-17T07:26:21;97428.59;;;5.40;100.00
36598;BME280;22607;49.550;11.940;2023-02-17T07:28:47;97420.94;;;5.48;100.00
36598;BME280;22607;49.550;11.940;2023-02-17T07:31:15;97419.91;;;5.51;100.00
36598;BME280;22607;49.550;11.940;2023-02-17T07:33:43;97422.38;;;5.74;100.00
36598;BME280;22607;49.550;11.940;2023-02-17T07:36:13;97424.09;;;5.85;100.00
36598;BME280;22607;49.550;11.940;2023-02-17T07:38:41;97417.00;;;6.08;100.00
36598;BME280;22607;49.550;11.940;2023-02-17T07:41:13;97423.13;;;5.86;100.00
36598;BME280;22607;49.550;11.940;2023-02-17T07:43:40;97427.31;;;5.98;100.00
36598;BME280;22607;49.550;11.940;2023-02-17T07:46:08;97428.38;;;6.07;100.00
36598;BME280;22607;49.550;11.940;2023-02-17T07:48:36;97423.28;;;6.06;100.00
36598;BME280;22607;49.550;11.940;2023-02-17T07:51:08;97419.59;;;6.08;100.00
36598;BME280;22607;49.550;11.940;2023-02-17T07:53:37;97421.84;;;6.01;100.00
36598;BME280;22607;49.550;11.940;2023-02-17T07:56:09;97427.44;;;6.18;100.00
36598;BME280;22607;49.550;11.940;2023-02-17T07:58:38;97427.72;;;6.15;100.00
36598;BME280;22607;49.550;11.940;2023-02-17T08:01:16;97423.03;;;6.40;100.00
36598;BME280;22607;49.550;11.940;2023-02-17T08:03:43;97419.03;;;6.36;100.00
36598;BME280;22607;49.550;11.940;2023-02-17T08:06:14;97427.09;;;6.54;100.00
36598;BME280;22607;49.550;11.940;2023-02-17T08:08:41;97427.63;;;6.57;100.00
36598;BME280;22607;49.550;11.940;2023-02-17T08:11:26;97422.47;;;6.77;100.00
36598;BME280;22607;49.550;11.940;2023-02-17T08:14:14;97429.75;;;6.74;100.00
36598;BME280;22607;49.550;11.940;2023-02-17T08:16:41;97421.22;;;6.72;100.00
36598;BME280;22607;49.550;11.940;2023-02-17T08:19:08;97425.06;;;6.77;100.00
36598;BME280;22607;49.550;11.940;2023-02-17T08:21:34;97433.88;;;6.86;100.00
36598;BME280;22607;49.550;11.940;2023-02-17T08:24:01;97430.47;;;6.95;100.00
36598;BME280;22607;49.550;11.940;2023-02-17T08:26:28;97425.53;;;7.02;100.00
36598;BME280;22607;49.550;11.940;2023-02-17T08:28:55;97425.81;;;6.99;100.00
36598;BME280;22607;49.550;11.940;2023-02-17T08:31:24;97428.00;;;7.04;100.00
36598;BME280;22607;49.550;11.940;2023-02-17T08:33:52;97419.38;;;7.03;100.00
36598;BME280;22607;49.550;11.940;2023-02-17T08:36:19;97423.50;;;7.16;100.00
36598;BME280;22607;49.550;11.940;2023-02-17T08:38:55;97423.91;;;7.11;100.00
36598;BME280;22607;49.550;11.940;2023-02-17T08:41:34;97418.84;;;7.19;100.00
36598;BME280;22607;49.550;11.940;2023-02-17T08:44:03;97429.41;;;7.18;100.00
36598;BME280;22607;49.550;11.940;2023-02-17T08:46:33;97411.81;;;7.40;100.00
36598;BME280;22607;49.550;11.940;2023-02-17T08:49:07;97420.63;;;7.29;100.00
36598;BME280;22607;49.550;11.940;2023-02-17T08:51:35;97417.19;;;7.38;100.00
36598;BME280;22607;49.550;11.940;2023-02-17T08:54:10;97416.22;;;7.39;100.00
36598;BME280;22607;49.550;11.940;2023-02-17T08:56:38;97413.31;;;7.52;100.00
36598;BME280;22607;49.550;11.940;2023-02-17T08:59:06;97407.81;;;7.75;100.00
36598;BME280;22607;49.550;11.940;2023-02-17T09:01:36;97407.97;;;7.54;100.00
36598;BME280;22607;49.550;11.940;2023-02-17T09:04:04;97410.16;;;7.58;100.00
36598;BME280;22607;49.550;11.940;2023-02-17T09:06:51;97425.16;;;7.46;100.00
36598;BME280;22607;49.550;11.940;2023-02-17T09:09:20;97431.59;;;7.72;100.00
36598;BME280;22607;49.550;11.940;2023-02-17T09:11:54;97425.44;;;7.73;100.00
36598;BME280;22607;49.550;11.940;2023-02-17T09:14:21;97424.34;;;7.75;100.00
36598;BME280;22607;49.550;11.940;2023-02-17T09:16:51;97425.81;;;7.88;100.00
36598;BME280;22607;49.550;11.940;2023-02-17T09:19:17;97431.03;;;7.88;100.00
36598;BME280;22607;49.550;11.940;2023-02-17T09:21:44;97429.84;;;7.82;100.00
36598;BME280;22607;49.550;11.940;2023-02-17T09:24:11;97430.22;;;7.87;100.00
36598;BME280;22607;49.550;11.940;2023-02-17T09:26:37;97425.00;;;7.87;100.00
36598;BME280;22607;49.550;11.940;2023-02-17T09:29:04;97434.06;;;7.93;100.00
36598;BME280;22607;49.550;11.940;2023-02-17T09:31:33;97437.78;;;8.00;100.00
36598;BME280;22607;49.550;11.940;2023-02-17T09:34:05;97428.22;;;8.19;100.00
36598;BME280;22607;49.550;11.940;2023-02-17T09:36:33;97430.59;;;8.12;100.00
36598;BME280;22607;49.550;11.940;2023-02-17T09:39:02;97407.59;;;8.44;100.00
36598;BME280;22607;49.550;11.940;2023-02-17T09:41:33;97414.16;;;8.20;100.00
36598;BME280;22607;49.550;11.940;2023-02-17T09:44:22;97410.94;;;8.36;100.00
36598;BME280;22607;49.550;11.940;2023-02-17T09:47:29;97415.50;;;8.34;100.00
36598;BME280;22607;49.550;11.940;2023-02-17T09:50:05;97416.00;;;8.48;100.00
36598;BME280;22607;49.550;11.940;2023-02-17T09:55:17;97414.19;;;8.48;100.00
36598;BME280;22607;49.550;11.940;2023-02-17T09:57:54;97414.34;;;8.47;100.00
36598;BME280;22607;49.550;11.940;2023-02-17T10:00:45;97420.13;;;8.50;100.00
36598;BME280;22607;49.550;11.940;2023-02-17T10:03:32;97413.59;;;8.64;100.00
36598;BME280;22607;49.550;11.940;2023-02-17T10:06:17;97411.97;;;8.63;100.00
36598;BME280;22607;49.550;11.940;2023-02-17T10:11:31;97421.66;;;8.53;100.00
36598;BME280;22607;49.550;11.940;2023-02-17T10:14:05;97414.97;;;8.69;100.00
36598;BME280;22607;49.550;11.940;2023-02-17T10:16:46;97399.53;;;8.65;100.00
36598;BME280;22607;49.550;11.940;2023-02-17T10:19:20;97407.41;;;8.65;100.00
36598;BME280;22607;49.550;11.940;2023-02-17T10:21:56;97405.22;;;8.61;100.00
36598;BME280;22607;49.550;11.940;2023-02-17T10:24:23;97396.31;;;9.00;100.00
36598;BME280;22607;49.550;11.940;2023-02-17T10:27:35;97400.72;;;8.81;100.00
36598;BME280;22607;49.550;11.940;2023-02-17T10:30:26;97397.88;;;8.92;100.00
36598;BME280;22607;49.550;11.940;2023-02-17T10:33:00;97401.75;;;8.88;100.00
36598;BME280;22607;49.550;11.940;2023-02-17T10:38:14;97402.81;;;8.96;100.00
36598;BME280;22607;49.550;11.940;2023-02-17T10:40:41;97406.34;;;9.04;100.00
36598;BME280;22607;49.550;11.940;2023-02-17T10:43:23;97410.31;;;8.90;100.00
36598;BME280;22607;49.550;11.940;2023-02-17T10:45:50;97410.84;;;9.12;100.00
36598;BME280;22607;49.550;11.940;2023-02-17T10:48:23;97396.09;;;9.11;100.00
36598;BME280;22607;49.550;11.940;2023-02-17T10:50:56;97404.88;;;9.20;100.00
36598;BME280;22607;49.550;11.940;2023-02-17T10:53:27;97402.69;;;9.15;100.00
36598;BME280;22607;49.550;11.940;2023-02-17T10:58:31;97372.31;;;9.23;100.00
36598;BME280;22607;49.550;11.940;2023-02-17T11:00:59;97352.75;;;9.17;100.00
36598;BME280;22607;49.550;11.940;2023-02-17T11:03:29;97359.47;;;9.38;100.00
36598;BME280;22607;49.550;11.940;2023-02-17T11:06:20;97359.38;;;9.48;100.00
36598;BME280;22607;49.550;11.940;2023-02-17T11:11:22;97375.41;;;9.44;100.00
36598;BME280;22607;49.550;11.940;2023-02-17T11:13:57;97381.78;;;9.42;100.00
36598;BME280;22607;49.550;11.940;2023-02-17T11:16:43;97377.59;;;9.49;100.00
36598;BME280;22607;49.550;11.940;2023-02-17T11:19:25;97371.19;;;9.70;100.00
36598;BME280;22607;49.550;11.940;2023-02-17T11:21:56;97366.28;;;9.49;100.00
36598;BME280;22607;49.550;11.940;2023-02-17T11:24:25;97369.88;;;9.48;100.00
36598;BME280;22607;49.550;11.940;2023-02-17T11:29:30;97347.47;;;9.80;100.00
36598;BME280;22607;49.550;11.940;2023-02-17T11:32:06;97347.06;;;9.66;100.00
36598;BME280;22607;49.550;11.940;2023-02-17T11:34:37;97339.50;;;9.63;100.00
36598;BME280;22607;49.550;11.940;2023-02-17T11:39:42;97327.72;;;9.67;100.00
36598;BME280;22607;49.550;11.940;2023-02-17T11:42:32;97331.97;;;9.68;100.00
36598;BME280;22607;49.550;11.940;2023-02-17T11:45:17;97330.91;;;9.79;100.00
36598;BME280;22607;49.550;11.940;2023-02-17T12:08:19;97327.06;;;9.65;100.00
36598;BME280;22607;49.550;11.940;2023-02-17T12:22:17;97312.41;;;9.81;100.00
36598;BME280;22607;49.550;11.940;2023-02-17T12:25:02;97320.56;;;10.13;100.00
36598;BME280;22607;49.550;11.940;2023-02-17T12:30:35;97323.00;;;9.97;100.00
36598;BME280;22607;49.550;11.940;2023-02-17T12:36:04;97326.47;;;10.06;100.00
36598;BME280;22607;49.550;11.940;2023-02-17T12:38:38;97331.00;;;9.96;100.00
36598;BME280;22607;49.550;11.940;2023-02-17T12:41:34;97313.69;;;10.11;100.00
36598;BME280;22607;49.550;11.940;2023-02-17T12:44:09;97312.66;;;9.96;100.00
36598;BME280;22607;49.550;11.940;2023-02-17T12:46:43;97305.03;;;9.84;100.00
36598;BME280;22607;49.550;11.940;2023-02-17T12:49:25;97310.28;;;10.19;100.00
36598;BME280;22607;49.550;11.940;2023-02-17T12:51:54;97315.66;;;9.75;100.00
36598;BME280;22607;49.550;11.940;2023-02-17T12:54:32;97304.13;;;10.02;100.00
36598;BME280;22607;49.550;11.940;2023-02-17T12:57:21;97309.06;;;9.70;100.00
36598;BME280;22607;49.550;11.940;2023-02-17T12:59:52;97311.63;;;9.62;100.00
36598;BME280;22607;49.550;11.940;2023-02-17T13:02:22;97312.03;;;9.76;100.00
36598;BME280;22607;49.550;11.940;2023-02-17T13:04:51;97310.19;;;9.68;100.00
36598;BME280;22607;49.550;11.940;2023-02-17T13:07:32;97309.00;;;9.62;100.00
36598;BME280;22607;49.550;11.940;2023-02-17T13:10:04;97307.25;;;9.71;100.00
36598;BME280;22607;49.550;11.940;2023-02-17T13:12:37;97296.44;;;9.74;100.00
36598;BME280;22607;49.550;11.940;2023-02-17T13:15:25;97300.91;;;9.74;100.00
36598;BME280;22607;49.550;11.940;2023-02-17T13:20:42;97309.00;;;9.62;100.00
36598;BME280;22607;49.550;11.940;2023-02-17T13:23:36;97309.72;;;9.72;100.00
36598;BME280;22607;49.550;11.940;2023-02-17T13:26:22;97313.31;;;9.71;100.00
36598;BME280;22607;49.550;11.940;2023-02-17T13:28:51;97313.25;;;9.55;100.00
36598;BME280;22607;49.550;11.940;2023-02-17T13:31:24;97332.53;;;9.54;100.00
36598;BME280;22607;49.550;11.940;2023-02-17T13:33:54;97325.56;;;9.63;100.00
36598;BME280;22607;49.550;11.940;2023-02-17T13:36:41;97326.72;;;9.60;100.00
36598;BME280;22607;49.550;11.940;2023-02-17T13:39:31;97327.31;;;9.54;100.00
36598;BME280;22607;49.550;11.940;2023-02-17T13:41:59;97312.13;;;9.39;100.00
36598;BME280;22607;49.550;11.940;2023-02-17T13:44:37;97312.63;;;9.61;100.00
36598;BME280;22607;49.550;11.940;2023-02-17T13:47:12;97310.28;;;9.58;100.00
36598;BME280;22607;49.550;11.940;2023-02-17T13:49:39;97305.75;;;9.68;100.00
36598;BME280;22607;49.550;11.940;2023-02-17T13:52:14;97304.69;;;9.53;100.00
36598;BME280;22607;49.550;11.940;2023-02-17T13:54:52;97298.16;;;9.57;100.00
36598;BME280;22607;49.550;11.940;2023-02-17T13:57:29;97277.53;;;9.62;100.00
36598;BME280;22607;49.550;11.940;2023-02-17T14:03:19;97287.97;;;9.54;100.00
36598;BME280;22607;49.550;11.940;2023-02-17T14:05:47;97282.13;;;9.60;100.00
36598;BME280;22607;49.550;11.940;2023-02-17T14:08:40;97281.84;;;9.71;100.00
36598;BME280;22607;49.550;11.940;2023-02-17T14:11:17;97280.22;;;9.70;100.00
36598;BME280;22607;49.550;11.940;2023-02-17T14:13:47;97274.84;;;9.80;100.00
36598;BME280;22607;49.550;11.940;2023-02-17T14:16:35;97274.78;;;9.98;100.00
36598;BME280;22607;49.550;11.940;2023-02-17T14:19:17;97264.63;;;10.04;100.00
36598;BME280;22607;49.550;11.940;2023-02-17T14:24:28;97270.28;;;9.82;100.00
36598;BME280;22607;49.550;11.940;2023-02-17T14:26:58;97272.06;;;9.82;100.00
36598;BME280;22607;49.550;11.940;2023-02-17T14:29:25;97275.22;;;9.94;100.00
36598;BME280;22607;49.550;11.940;2023-02-17T14:35:48;97269.28;;;9.83;100.00
36598;BME280;22607;49.550;11.940;2023-02-17T14:37:42;97275.50;;;10.17;100.00
36598;BME280;22607;49.550;11.940;2023-02-17T14:40:25;97266.06;;;9.98;100.00
36598;BME280;22607;49.550;11.940;2023-02-17T14:42:52;97268.00;;;10.31;100.00
36598;BME280;22607;49.550;11.940;2023-02-17T14:45:21;97271.13;;;9.91;100.00
36598;BME280;22607;49.550;11.940;2023-02-17T14:47:48;97264.63;;;10.04;100.00